sensor_id;sensor_type;location;lat;lon;timestamp;P1;durP1;ratioP1;P2;durP2;ratioP2
8050;SDS011;4068;42.158;24.732;2023-04-30T00:02:10;6.65;;;5.32;;
8050;SDS011;4068;42.158;24.732;2023-04-30T00:04:36;8.77;;;6.18;;
8050;SDS011;4068;42.158;24.732;2023-04-30T00:07:01;8.60;;;5.95;;
8050;SDS011;4068;42.158;24.732;2023-04-30T00:09:27;11.60;;;6.43;;
8050;SDS011;4068;42.158;24.732;2023-04-30T00:11:52;7.75;;;5.72;;
8050;SDS011;4068;42.158;24.732;2023-04-30T00:14:18;8.52;;;5.95;;
8050;SDS011;4068;42.158;24.732;2023-04-30T00:16:43;9.02;;;6.28;;
8050;SDS011;4068;42.158;24.732;2023-04-30T00:19:09;8.07;;;5.75;;
8050;SDS011;4068;42.158;24.732;2023-04-30T00:21:34;10.98;;;6.60;;
8050;SDS011;4068;42.158;24.732;2023-04-30T00:24:00;11.82;;;6.43;;
8050;SDS011;4068;42.158;24.732;2023-04-30T00:26:25;8.27;;;6.65;;
8050;SDS011;4068;42.158;24.732;2023-04-30T00:28:51;10.00;;;6.03;;
8050;SDS011;4068;42.158;24.732;2023-04-30T00:31:16;14.30;;;7.00;;
8050;SDS011;4068;42.158;24.732;2023-04-30T00:33:42;10.70;;;6.55;;
8050;SDS011;4068;42.158;24.732;2023-04-30T00:36:07;11.93;;;6.68;;
8050;SDS011;4068;42.158;24.732;2023-04-30T00:38:33;7.97;;;6.10;;
8050;SDS011;4068;42.158;24.732;2023-04-30T00:40:58;11.93;;;6.93;;
8050;SDS011;4068;42.158;24.732;2023-04-30T00:43:24;9.88;;;6.90;;
8050;SDS011;4068;42.158;24.732;2023-04-30T00:45:49;10.30;;;7.07;;
8050;SDS011;4068;42.158;24.732;2023-04-30T00:48:15;12.02;;;6.80;;
8050;SDS011;4068;42.158;24.732;2023-04-30T00:50:41;12.20;;;6.45;;
8050;SDS011;4068;42.158;24.732;2023-04-30T00:53:08;12.57;;;7.10;;
8050;SDS011;4068;42.158;24.732;2023-04-30T00:55:34;10.70;;;7.05;;
8050;SDS011;4068;42.158;24.732;2023-04-30T00:58:00;9.73;;;6.85;;
8050;SDS011;4068;42.158;24.732;2023-04-30T01:00:26;10.63;;;6.82;;
8050;SDS011;4068;42.158;24.732;2023-04-30T01:02:52;12.60;;;6.90;;
8050;SDS011;4068;42.158;24.732;2023-04-30T01:05:17;13.27;;;7.00;;
8050;SDS011;4068;42.158;24.732;2023-04-30T01:07:43;9.05;;;6.55;;
8050;SDS011;4068;42.158;24.732;2023-04-30T01:10:13;8.48;;;6.88;;
8050;SDS011;4068;42.158;24.732;2023-04-30T01:12:49;8.32;;;7.32;;
8050;SDS011;4068;42.158;24.732;2023-04-30T01:18:21;10.57;;;7.47;;
8050;SDS011;4068;42.158;24.732;2023-04-30T01:20:53;10.63;;;6.95;;
8050;SDS011;4068;42.158;24.732;2023-04-30T01:28:49;8.73;;;6.80;;
8050;SDS011;4068;42.158;24.732;2023-04-30T01:31:17;16.67;;;6.90;;
8050;SDS011;4068;42.158;24.732;2023-04-30T01:33:43;10.32;;;6.72;;
8050;SDS011;4068;42.158;24.732;2023-04-30T01:41:39;13.25;;;7.32;;
8050;SDS011;4068;42.158;24.732;2023-04-30T01:44:42;10.60;;;7.43;;
8050;SDS011;4068;42.158;24.732;2023-04-30T01:47:45;11.73;;;7.20;;
8050;SDS011;4068;42.158;24.732;2023-04-30T01:50:37;11.38;;;6.88;;
8050;SDS011;4068;42.158;24.732;2023-04-30T01:53:08;13.27;;;7.10;;
8050;SDS011;4068;42.158;24.732;2023-04-30T01:55:56;11.77;;;7.28;;
8050;SDS011;4068;42.158;24.732;2023-04-30T01:58:26;11.60;;;7.50;;
8050;SDS011;4068;42.158;24.732;2023-04-30T02:00:53;12.18;;;7.30;;
8050;SDS011;4068;42.158;24.732;2023-04-30T02:03:18;9.75;;;7.00;;
8050;SDS011;4068;42.158;24.732;2023-04-30T02:05:43;10.43;;;6.43;;
8050;SDS011;4068;42.158;24.732;2023-04-30T02:08:09;15.35;;;7.70;;
8050;SDS011;4068;42.158;24.732;2023-04-30T02:10:34;13.18;;;7.95;;
8050;SDS011;4068;42.158;24.732;2023-04-30T02:13:00;14.02;;;8.43;;
8050;SDS011;4068;42.158;24.732;2023-04-30T02:15:25;13.25;;;7.93;;
8050;SDS011;4068;42.158;24.732;2023-04-30T02:17:51;8.60;;;7.40;;
8050;SDS011;4068;42.158;24.732;2023-04-30T02:20:16;11.98;;;7.70;;
8050;SDS011;4068;42.158;24.732;2023-04-30T02:22:42;10.15;;;7.75;;
8050;SDS011;4068;42.158;24.732;2023-04-30T02:25:08;12.55;;;7.32;;
8050;SDS011;4068;42.158;24.732;2023-04-30T02:27:35;9.30;;;7.22;;
8050;SDS011;4068;42.158;24.732;2023-04-30T02:30:00;13.63;;;8.57;;
8050;SDS011;4068;42.158;24.732;2023-04-30T02:32:26;12.10;;;8.82;;
8050;SDS011;4068;42.158;24.732;2023-04-30T02:34:52;14.27;;;10.05;;
8050;SDS011;4068;42.158;24.732;2023-04-30T02:37:17;17.50;;;10.00;;
8050;SDS011;4068;42.158;24.732;2023-04-30T02:39:43;15.38;;;10.55;;
8050;SDS011;4068;42.158;24.732;2023-04-30T02:42:08;18.05;;;11.90;;
8050;SDS011;4068;42.158;24.732;2023-04-30T02:44:34;19.00;;;11.32;;
8050;SDS011;4068;42.158;24.732;2023-04-30T02:47:00;15.10;;;9.93;;
8050;SDS011;4068;42.158;24.732;2023-04-30T02:49:26;14.13;;;9.30;;
8050;SDS011;4068;42.158;24.732;2023-04-30T02:51:52;16.63;;;9.32;;
8050;SDS011;4068;42.158;24.732;2023-04-30T02:54:18;11.93;;;8.50;;
8050;SDS011;4068;42.158;24.732;2023-04-30T02:56:43;16.13;;;9.35;;
8050;SDS011;4068;42.158;24.732;2023-04-30T02:59:10;14.90;;;9.10;;
8050;SDS011;4068;42.158;24.732;2023-04-30T03:01:35;10.27;;;8.43;;
8050;SDS011;4068;42.158;24.732;2023-04-30T03:04:01;14.38;;;8.18;;
8050;SDS011;4068;42.158;24.732;2023-04-30T03:06:29;9.25;;;7.68;;
8050;SDS011;4068;42.158;24.732;2023-04-30T03:08:58;14.43;;;7.75;;
8050;SDS011;4068;42.158;24.732;2023-04-30T03:11:23;10.73;;;8.23;;
8050;SDS011;4068;42.158;24.732;2023-04-30T03:13:49;12.55;;;8.15;;
8050;SDS011;4068;42.158;24.732;2023-04-30T03:16:16;13.40;;;7.97;;
8050;SDS011;4068;42.158;24.732;2023-04-30T03:18:42;12.45;;;7.55;;
8050;SDS011;4068;42.158;24.732;2023-04-30T03:21:08;12.30;;;8.50;;
8050;SDS011;4068;42.158;24.732;2023-04-30T03:23:33;12.80;;;8.77;;
8050;SDS011;4068;42.158;24.732;2023-04-30T03:25:59;11.95;;;8.85;;
8050;SDS011;4068;42.158;24.732;2023-04-30T03:28:25;13.60;;;8.77;;
8050;SDS011;4068;42.158;24.732;2023-04-30T03:30:50;15.05;;;9.52;;
8050;SDS011;4068;42.158;24.732;2023-04-30T03:33:16;14.88;;;9.65;;
8050;SDS011;4068;42.158;24.732;2023-04-30T03:35:41;21.45;;;9.95;;
8050;SDS011;4068;42.158;24.732;2023-04-30T03:38:06;14.88;;;9.48;;
8050;SDS011;4068;42.158;24.732;2023-04-30T03:40:32;13.07;;;10.15;;
8050;SDS011;4068;42.158;24.732;2023-04-30T03:42:57;15.98;;;9.30;;
8050;SDS011;4068;42.158;24.732;2023-04-30T03:45:22;16.42;;;10.00;;
8050;SDS011;4068;42.158;24.732;2023-04-30T03:47:48;16.25;;;9.68;;
8050;SDS011;4068;42.158;24.732;2023-04-30T03:50:13;17.63;;;9.48;;
8050;SDS011;4068;42.158;24.732;2023-04-30T03:52:41;15.70;;;9.50;;
8050;SDS011;4068;42.158;24.732;2023-04-30T03:55:07;17.45;;;9.95;;
8050;SDS011;4068;42.158;24.732;2023-04-30T03:57:32;12.07;;;9.73;;
8050;SDS011;4068;42.158;24.732;2023-04-30T03:59:58;14.88;;;9.75;;
8050;SDS011;4068;42.158;24.732;2023-04-30T04:02:23;18.25;;;9.82;;
8050;SDS011;4068;42.158;24.732;2023-04-30T04:04:49;16.15;;;9.23;;
8050;SDS011;4068;42.158;24.732;2023-04-30T04:07:15;20.40;;;10.35;;
8050;SDS011;4068;42.158;24.732;2023-04-30T04:09:40;21.15;;;9.35;;
8050;SDS011;4068;42.158;24.732;2023-04-30T04:12:06;16.27;;;9.80;;
8050;SDS011;4068;42.158;24.732;2023-04-30T04:14:31;14.18;;;10.48;;
8050;SDS011;4068;42.158;24.732;2023-04-30T04:16:57;19.80;;;10.18;;
8050;SDS011;4068;42.158;24.732;2023-04-30T04:19:24;14.60;;;9.65;;
8050;SDS011;4068;42.158;24.732;2023-04-30T04:21:50;16.65;;;9.90;;
8050;SDS011;4068;42.158;24.732;2023-04-30T04:24:15;13.05;;;9.32;;
8050;SDS011;4068;42.158;24.732;2023-04-30T04:26:41;13.98;;;8.50;;
8050;SDS011;4068;42.158;24.732;2023-04-30T04:29:06;14.07;;;8.65;;
8050;SDS011;4068;42.158;24.732;2023-04-30T04:31:35;19.02;;;9.25;;
8050;SDS011;4068;42.158;24.732;2023-04-30T04:34:01;14.95;;;9.07;;
8050;SDS011;4068;42.158;24.732;2023-04-30T04:36:28;13.07;;;8.88;;
8050;SDS011;4068;42.158;24.732;2023-04-30T04:38:54;15.32;;;8.85;;
8050;SDS011;4068;42.158;24.732;2023-04-30T04:41:29;13.95;;;9.40;;
8050;SDS011;4068;42.158;24.732;2023-04-30T04:43:56;15.48;;;9.50;;
8050;SDS011;4068;42.158;24.732;2023-04-30T04:46:22;14.02;;;9.20;;
8050;SDS011;4068;42.158;24.732;2023-04-30T04:48:48;14.50;;;9.10;;
8050;SDS011;4068;42.158;24.732;2023-04-30T04:51:14;12.23;;;8.98;;
8050;SDS011;4068;42.158;24.732;2023-04-30T04:53:39;14.10;;;8.70;;
8050;SDS011;4068;42.158;24.732;2023-04-30T04:56:05;12.43;;;8.23;;
8050;SDS011;4068;42.158;24.732;2023-04-30T04:58:31;12.77;;;8.80;;
8050;SDS011;4068;42.158;24.732;2023-04-30T05:00:57;15.85;;;8.60;;
8050;SDS011;4068;42.158;24.732;2023-04-30T05:03:24;21.60;;;8.23;;
8050;SDS011;4068;42.158;24.732;2023-04-30T05:05:50;13.30;;;9.60;;
8050;SDS011;4068;42.158;24.732;2023-04-30T05:08:16;16.45;;;9.15;;
8050;SDS011;4068;42.158;24.732;2023-04-30T05:10:41;15.63;;;9.43;;
8050;SDS011;4068;42.158;24.732;2023-04-30T05:13:07;11.45;;;8.70;;
8050;SDS011;4068;42.158;24.732;2023-04-30T05:15:32;18.98;;;9.25;;
8050;SDS011;4068;42.158;24.732;2023-04-30T05:17:57;13.15;;;9.30;;
8050;SDS011;4068;42.158;24.732;2023-04-30T05:20:23;14.57;;;8.27;;
8050;SDS011;4068;42.158;24.732;2023-04-30T05:22:48;15.32;;;9.95;;
8050;SDS011;4068;42.158;24.732;2023-04-30T05:25:14;13.32;;;9.20;;
8050;SDS011;4068;42.158;24.732;2023-04-30T05:27:39;11.20;;;8.35;;
8050;SDS011;4068;42.158;24.732;2023-04-30T05:30:05;14.88;;;8.32;;
8050;SDS011;4068;42.158;24.732;2023-04-30T05:32:31;12.80;;;9.23;;
8050;SDS011;4068;42.158;24.732;2023-04-30T05:34:56;13.27;;;9.38;;
8050;SDS011;4068;42.158;24.732;2023-04-30T05:37:22;11.20;;;8.80;;
8050;SDS011;4068;42.158;24.732;2023-04-30T05:39:47;14.80;;;9.40;;
8050;SDS011;4068;42.158;24.732;2023-04-30T05:42:13;12.10;;;9.00;;
8050;SDS011;4068;42.158;24.732;2023-04-30T05:44:39;12.00;;;9.50;;
8050;SDS011;4068;42.158;24.732;2023-04-30T05:47:05;16.15;;;9.00;;
8050;SDS011;4068;42.158;24.732;2023-04-30T05:49:30;12.57;;;8.98;;
8050;SDS011;4068;42.158;24.732;2023-04-30T05:51:56;17.48;;;9.63;;
8050;SDS011;4068;42.158;24.732;2023-04-30T05:54:21;11.52;;;8.80;;
8050;SDS011;4068;42.158;24.732;2023-04-30T05:56:47;9.65;;;7.80;;
8050;SDS011;4068;42.158;24.732;2023-04-30T05:59:12;11.98;;;8.98;;
8050;SDS011;4068;42.158;24.732;2023-04-30T06:01:38;10.95;;;7.95;;
8050;SDS011;4068;42.158;24.732;2023-04-30T06:04:04;12.65;;;9.35;;
8050;SDS011;4068;42.158;24.732;2023-04-30T06:06:29;15.43;;;9.13;;
8050;SDS011;4068;42.158;24.732;2023-04-30T06:08:55;10.63;;;8.00;;
8050;SDS011;4068;42.158;24.732;2023-04-30T06:11:21;14.98;;;8.35;;
8050;SDS011;4068;42.158;24.732;2023-04-30T06:13:49;13.10;;;9.20;;
8050;SDS011;4068;42.158;24.732;2023-04-30T06:16:15;9.57;;;7.88;;
8050;SDS011;4068;42.158;24.732;2023-04-30T06:18:40;11.85;;;8.48;;
8050;SDS011;4068;42.158;24.732;2023-04-30T06:21:06;12.27;;;8.93;;
8050;SDS011;4068;42.158;24.732;2023-04-30T06:23:31;11.48;;;7.30;;
8050;SDS011;4068;42.158;24.732;2023-04-30T06:25:57;12.15;;;7.72;;
8050;SDS011;4068;42.158;24.732;2023-04-30T06:28:22;10.52;;;6.63;;
8050;SDS011;4068;42.158;24.732;2023-04-30T06:30:49;7.35;;;6.00;;
8050;SDS011;4068;42.158;24.732;2023-04-30T06:33:15;11.20;;;7.00;;
8050;SDS011;4068;42.158;24.732;2023-04-30T06:35:41;9.25;;;6.90;;
8050;SDS011;4068;42.158;24.732;2023-04-30T06:38:07;8.05;;;6.47;;
8050;SDS011;4068;42.158;24.732;2023-04-30T06:40:32;9.40;;;6.75;;
8050;SDS011;4068;42.158;24.732;2023-04-30T06:42:58;8.23;;;6.63;;
8050;SDS011;4068;42.158;24.732;2023-04-30T06:45:23;6.43;;;5.80;;
8050;SDS011;4068;42.158;24.732;2023-04-30T06:47:49;7.65;;;5.47;;
8050;SDS011;4068;42.158;24.732;2023-04-30T06:50:15;8.00;;;5.68;;
8050;SDS011;4068;42.158;24.732;2023-04-30T06:52:41;7.72;;;5.47;;
8050;SDS011;4068;42.158;24.732;2023-04-30T06:55:07;6.70;;;5.90;;
8050;SDS011;4068;42.158;24.732;2023-04-30T06:57:33;8.82;;;6.38;;
8050;SDS011;4068;42.158;24.732;2023-04-30T07:00:01;6.45;;;5.15;;
8050;SDS011;4068;42.158;24.732;2023-04-30T07:02:28;9.00;;;6.05;;
8050;SDS011;4068;42.158;24.732;2023-04-30T07:04:53;8.52;;;5.60;;
8050;SDS011;4068;42.158;24.732;2023-04-30T07:07:19;9.57;;;5.95;;
8050;SDS011;4068;42.158;24.732;2023-04-30T07:09:44;6.78;;;5.32;;
8050;SDS011;4068;42.158;24.732;2023-04-30T07:12:10;10.80;;;5.82;;
8050;SDS011;4068;42.158;24.732;2023-04-30T07:14:37;8.00;;;5.07;;
8050;SDS011;4068;42.158;24.732;2023-04-30T07:17:03;12.13;;;5.72;;
8050;SDS011;4068;42.158;24.732;2023-04-30T07:19:28;12.65;;;5.60;;
8050;SDS011;4068;42.158;24.732;2023-04-30T07:21:54;6.85;;;5.18;;
8050;SDS011;4068;42.158;24.732;2023-04-30T07:24:19;6.90;;;5.07;;
8050;SDS011;4068;42.158;24.732;2023-04-30T07:26:45;7.50;;;5.75;;
8050;SDS011;4068;42.158;24.732;2023-04-30T07:29:10;9.55;;;5.65;;
8050;SDS011;4068;42.158;24.732;2023-04-30T07:31:36;8.23;;;5.20;;
8050;SDS011;4068;42.158;24.732;2023-04-30T07:34:01;7.43;;;5.30;;
8050;SDS011;4068;42.158;24.732;2023-04-30T07:36:26;6.20;;;4.97;;
8050;SDS011;4068;42.158;24.732;2023-04-30T07:38:52;6.82;;;4.72;;
8050;SDS011;4068;42.158;24.732;2023-04-30T07:41:17;8.23;;;4.93;;
8050;SDS011;4068;42.158;24.732;2023-04-30T07:43:43;7.30;;;4.97;;
8050;SDS011;4068;42.158;24.732;2023-04-30T07:46:08;8.23;;;5.38;;
8050;SDS011;4068;42.158;24.732;2023-04-30T07:48:34;6.60;;;5.25;;
8050;SDS011;4068;42.158;24.732;2023-04-30T07:50:59;6.78;;;4.93;;
8050;SDS011;4068;42.158;24.732;2023-04-30T07:53:25;9.60;;;5.30;;
8050;SDS011;4068;42.158;24.732;2023-04-30T07:55:50;7.78;;;5.07;;
8050;SDS011;4068;42.158;24.732;2023-04-30T07:58:16;7.70;;;5.13;;
8050;SDS011;4068;42.158;24.732;2023-04-30T08:00:41;5.15;;;4.60;;
8050;SDS011;4068;42.158;24.732;2023-04-30T08:03:06;10.00;;;4.55;;
8050;SDS011;4068;42.158;24.732;2023-04-30T08:05:32;5.75;;;4.20;;
8050;SDS011;4068;42.158;24.732;2023-04-30T08:07:58;10.65;;;4.55;;
8050;SDS011;4068;42.158;24.732;2023-04-30T08:10:23;5.43;;;4.53;;
8050;SDS011;4068;42.158;24.732;2023-04-30T08:12:50;6.90;;;4.35;;
8050;SDS011;4068;42.158;24.732;2023-04-30T08:15:16;7.07;;;4.72;;
8050;SDS011;4068;42.158;24.732;2023-04-30T08:17:45;5.72;;;5.13;;
8050;SDS011;4068;42.158;24.732;2023-04-30T08:20:13;8.18;;;5.05;;
8050;SDS011;4068;42.158;24.732;2023-04-30T08:22:38;5.63;;;4.28;;
8050;SDS011;4068;42.158;24.732;2023-04-30T08:25:04;5.22;;;4.30;;
8050;SDS011;4068;42.158;24.732;2023-04-30T08:27:30;4.75;;;4.18;;
8050;SDS011;4068;42.158;24.732;2023-04-30T08:29:56;5.65;;;4.07;;
8050;SDS011;4068;42.158;24.732;2023-04-30T08:32:21;5.93;;;4.13;;
8050;SDS011;4068;42.158;24.732;2023-04-30T08:34:47;10.30;;;4.10;;
8050;SDS011;4068;42.158;24.732;2023-04-30T08:37:12;5.60;;;4.30;;
8050;SDS011;4068;42.158;24.732;2023-04-30T08:39:38;8.02;;;4.70;;
8050;SDS011;4068;42.158;24.732;2023-04-30T08:42:04;9.63;;;4.60;;
8050;SDS011;4068;42.158;24.732;2023-04-30T08:44:33;5.95;;;4.30;;
8050;SDS011;4068;42.158;24.732;2023-04-30T08:47:00;5.78;;;4.20;;
8050;SDS011;4068;42.158;24.732;2023-04-30T08:49:27;6.70;;;4.07;;
8050;SDS011;4068;42.158;24.732;2023-04-30T08:51:56;7.38;;;4.15;;
8050;SDS011;4068;42.158;24.732;2023-04-30T08:54:24;4.07;;;2.78;;
8050;SDS011;4068;42.158;24.732;2023-04-30T08:56:52;3.88;;;3.20;;
8050;SDS011;4068;42.158;24.732;2023-04-30T08:59:17;5.55;;;3.50;;
8050;SDS011;4068;42.158;24.732;2023-04-30T09:01:43;5.70;;;3.60;;
8050;SDS011;4068;42.158;24.732;2023-04-30T09:04:08;4.07;;;3.47;;
8050;SDS011;4068;42.158;24.732;2023-04-30T09:06:34;5.25;;;3.60;;
8050;SDS011;4068;42.158;24.732;2023-04-30T09:09:07;6.72;;;3.67;;
8050;SDS011;4068;42.158;24.732;2023-04-30T09:11:42;5.13;;;4.03;;
8050;SDS011;4068;42.158;24.732;2023-04-30T09:14:07;5.22;;;3.55;;
8050;SDS011;4068;42.158;24.732;2023-04-30T09:16:49;4.25;;;3.65;;
8050;SDS011;4068;42.158;24.732;2023-04-30T09:19:34;5.10;;;3.30;;
8050;SDS011;4068;42.158;24.732;2023-04-30T09:22:12;4.03;;;3.50;;
8050;SDS011;4068;42.158;24.732;2023-04-30T09:24:46;5.35;;;3.30;;
8050;SDS011;4068;42.158;24.732;2023-04-30T09:27:17;8.00;;;3.22;;
8050;SDS011;4068;42.158;24.732;2023-04-30T09:29:43;6.50;;;3.65;;
8050;SDS011;4068;42.158;24.732;2023-04-30T09:32:10;3.28;;;2.97;;
8050;SDS011;4068;42.158;24.732;2023-04-30T09:34:36;3.95;;;3.53;;
8050;SDS011;4068;42.158;24.732;2023-04-30T09:37:01;4.40;;;3.35;;
8050;SDS011;4068;42.158;24.732;2023-04-30T09:39:28;4.40;;;3.42;;
8050;SDS011;4068;42.158;24.732;2023-04-30T09:42:06;5.38;;;3.67;;
8050;SDS011;4068;42.158;24.732;2023-04-30T09:44:35;3.97;;;3.03;;
8050;SDS011;4068;42.158;24.732;2023-04-30T09:47:01;4.97;;;3.40;;
8050;SDS011;4068;42.158;24.732;2023-04-30T09:49:27;5.63;;;4.00;;
8050;SDS011;4068;42.158;24.732;2023-04-30T09:51:56;4.80;;;4.03;;
8050;SDS011;4068;42.158;24.732;2023-04-30T09:54:29;4.53;;;3.30;;
8050;SDS011;4068;42.158;24.732;2023-04-30T09:56:57;4.50;;;3.10;;
8050;SDS011;4068;42.158;24.732;2023-04-30T09:59:27;5.43;;;3.47;;
8050;SDS011;4068;42.158;24.732;2023-04-30T10:02:04;3.25;;;2.95;;
8050;SDS011;4068;42.158;24.732;2023-04-30T10:04:37;4.93;;;3.40;;
8050;SDS011;4068;42.158;24.732;2023-04-30T10:07:15;5.45;;;3.08;;
8050;SDS011;4068;42.158;24.732;2023-04-30T10:09:47;5.93;;;3.15;;
8050;SDS011;4068;42.158;24.732;2023-04-30T10:12:22;2.97;;;2.75;;
8050;SDS011;4068;42.158;24.732;2023-04-30T10:14:54;4.22;;;3.03;;
8050;SDS011;4068;42.158;24.732;2023-04-30T10:17:30;7.75;;;3.03;;
8050;SDS011;4068;42.158;24.732;2023-04-30T10:20:01;3.90;;;3.28;;
8050;SDS011;4068;42.158;24.732;2023-04-30T10:22:29;4.78;;;3.28;;
8050;SDS011;4068;42.158;24.732;2023-04-30T10:24:58;3.67;;;3.22;;
8050;SDS011;4068;42.158;24.732;2023-04-30T10:27:25;3.60;;;3.10;;
8050;SDS011;4068;42.158;24.732;2023-04-30T10:29:50;4.20;;;3.08;;
8050;SDS011;4068;42.158;24.732;2023-04-30T10:32:17;8.10;;;3.30;;
8050;SDS011;4068;42.158;24.732;2023-04-30T10:37:13;4.85;;;3.40;;
8050;SDS011;4068;42.158;24.732;2023-04-30T10:39:46;4.25;;;3.00;;
8050;SDS011;4068;42.158;24.732;2023-04-30T10:42:13;3.38;;;2.80;;
8050;SDS011;4068;42.158;24.732;2023-04-30T10:44:39;4.20;;;3.33;;
8050;SDS011;4068;42.158;24.732;2023-04-30T10:47:04;4.15;;;3.30;;
8050;SDS011;4068;42.158;24.732;2023-04-30T10:49:31;3.67;;;3.10;;
8050;SDS011;4068;42.158;24.732;2023-04-30T10:51:58;5.45;;;3.25;;
8050;SDS011;4068;42.158;24.732;2023-04-30T10:54:27;6.03;;;3.13;;
8050;SDS011;4068;42.158;24.732;2023-04-30T10:56:54;5.43;;;3.45;;
8050;SDS011;4068;42.158;24.732;2023-04-30T11:03:05;4.65;;;3.45;;
8050;SDS011;4068;42.158;24.732;2023-04-30T11:05:34;5.88;;;3.50;;
8050;SDS011;4068;42.158;24.732;2023-04-30T11:08:02;4.00;;;3.38;;
8050;SDS011;4068;42.158;24.732;2023-04-30T11:10:30;4.32;;;3.05;;
8050;SDS011;4068;42.158;24.732;2023-04-30T11:12:57;3.67;;;3.08;;
8050;SDS011;4068;42.158;24.732;2023-04-30T11:15:38;5.95;;;3.60;;
8050;SDS011;4068;42.158;24.732;2023-04-30T11:18:07;5.65;;;3.33;;
8050;SDS011;4068;42.158;24.732;2023-04-30T11:20:36;4.38;;;3.10;;
8050;SDS011;4068;42.158;24.732;2023-04-30T11:23:08;7.60;;;3.22;;
8050;SDS011;4068;42.158;24.732;2023-04-30T11:25:44;4.93;;;3.40;;
8050;SDS011;4068;42.158;24.732;2023-04-30T11:28:17;10.48;;;6.28;;
8050;SDS011;4068;42.158;24.732;2023-04-30T11:30:57;7.00;;;4.75;;
8050;SDS011;4068;42.158;24.732;2023-04-30T11:33:24;5.63;;;3.58;;
8050;SDS011;4068;42.158;24.732;2023-04-30T11:35:51;3.38;;;3.08;;
8050;SDS011;4068;42.158;24.732;2023-04-30T11:38:35;4.05;;;3.22;;
8050;SDS011;4068;42.158;24.732;2023-04-30T11:41:02;3.58;;;3.15;;
8050;SDS011;4068;42.158;24.732;2023-04-30T11:43:29;5.97;;;3.33;;
8050;SDS011;4068;42.158;24.732;2023-04-30T11:46:03;7.70;;;3.67;;
8050;SDS011;4068;42.158;24.732;2023-04-30T11:48:33;4.18;;;3.60;;
8050;SDS011;4068;42.158;24.732;2023-04-30T11:51:19;4.70;;;3.42;;
8050;SDS011;4068;42.158;24.732;2023-04-30T11:53:47;3.75;;;2.92;;
8050;SDS011;4068;42.158;24.732;2023-04-30T11:56:17;5.35;;;3.15;;
8050;SDS011;4068;42.158;24.732;2023-04-30T11:58:45;5.35;;;3.63;;
8050;SDS011;4068;42.158;24.732;2023-04-30T12:01:11;4.30;;;3.05;;
8050;SDS011;4068;42.158;24.732;2023-04-30T12:03:40;3.55;;;3.00;;
8050;SDS011;4068;42.158;24.732;2023-04-30T12:06:08;4.95;;;3.33;;
8050;SDS011;4068;42.158;24.732;2023-04-30T12:08:34;4.97;;;3.70;;
8050;SDS011;4068;42.158;24.732;2023-04-30T12:11:00;4.40;;;3.83;;
8050;SDS011;4068;42.158;24.732;2023-04-30T12:13:25;7.03;;;4.80;;
8050;SDS011;4068;42.158;24.732;2023-04-30T12:15:57;4.15;;;3.75;;
8050;SDS011;4068;42.158;24.732;2023-04-30T12:18:24;4.43;;;4.03;;
8050;SDS011;4068;42.158;24.732;2023-04-30T12:20:50;5.43;;;3.28;;
8050;SDS011;4068;42.158;24.732;2023-04-30T12:23:16;5.05;;;3.30;;
8050;SDS011;4068;42.158;24.732;2023-04-30T12:25:42;4.80;;;3.20;;
8050;SDS011;4068;42.158;24.732;2023-04-30T12:28:08;8.52;;;3.63;;
8050;SDS011;4068;42.158;24.732;2023-04-30T12:30:34;11.95;;;3.75;;
8050;SDS011;4068;42.158;24.732;2023-04-30T12:32:59;10.90;;;4.70;;
8050;SDS011;4068;42.158;24.732;2023-04-30T12:35:27;14.77;;;4.78;;
8050;SDS011;4068;42.158;24.732;2023-04-30T12:38:02;7.25;;;4.50;;
8050;SDS011;4068;42.158;24.732;2023-04-30T12:40:30;5.93;;;4.03;;
8050;SDS011;4068;42.158;24.732;2023-04-30T12:43:02;5.57;;;4.43;;
8050;SDS011;4068;42.158;24.732;2023-04-30T12:45:45;7.30;;;5.47;;
8050;SDS011;4068;42.158;24.732;2023-04-30T12:48:19;7.35;;;5.57;;
8050;SDS011;4068;42.158;24.732;2023-04-30T12:50:58;9.00;;;5.85;;
8050;SDS011;4068;42.158;24.732;2023-04-30T12:53:29;9.60;;;6.40;;
8050;SDS011;4068;42.158;24.732;2023-04-30T12:58:39;9.80;;;6.25;;
8050;SDS011;4068;42.158;24.732;2023-04-30T13:01:09;14.77;;;6.50;;
8050;SDS011;4068;42.158;24.732;2023-04-30T13:03:35;11.65;;;6.63;;
8050;SDS011;4068;42.158;24.732;2023-04-30T13:06:01;15.52;;;6.50;;
8050;SDS011;4068;42.158;24.732;2023-04-30T13:08:28;11.65;;;6.20;;
8050;SDS011;4068;42.158;24.732;2023-04-30T13:10:54;11.35;;;6.75;;
8050;SDS011;4068;42.158;24.732;2023-04-30T13:13:19;7.80;;;6.30;;
8050;SDS011;4068;42.158;24.732;2023-04-30T13:15:45;7.13;;;6.30;;
8050;SDS011;4068;42.158;24.732;2023-04-30T13:18:11;10.52;;;6.40;;
8050;SDS011;4068;42.158;24.732;2023-04-30T13:20:39;12.93;;;8.13;;
8050;SDS011;4068;42.158;24.732;2023-04-30T13:23:05;16.15;;;9.52;;
8050;SDS011;4068;42.158;24.732;2023-04-30T13:25:31;7.78;;;6.07;;
8050;SDS011;4068;42.158;24.732;2023-04-30T13:27:57;7.25;;;5.32;;
8050;SDS011;4068;42.158;24.732;2023-04-30T13:30:23;11.25;;;5.82;;
8050;SDS011;4068;42.158;24.732;2023-04-30T13:32:49;6.97;;;5.43;;
8050;SDS011;4068;42.158;24.732;2023-04-30T13:35:15;8.13;;;6.53;;
8050;SDS011;4068;42.158;24.732;2023-04-30T13:37:41;6.65;;;5.13;;
8050;SDS011;4068;42.158;24.732;2023-04-30T13:40:07;7.78;;;4.93;;
8050;SDS011;4068;42.158;24.732;2023-04-30T13:42:35;6.60;;;4.43;;
8050;SDS011;4068;42.158;24.732;2023-04-30T13:45:02;9.40;;;5.03;;
8050;SDS011;4068;42.158;24.732;2023-04-30T13:47:28;10.50;;;4.95;;
8050;SDS011;4068;42.158;24.732;2023-04-30T13:49:53;5.05;;;4.40;;
8050;SDS011;4068;42.158;24.732;2023-04-30T13:52:18;5.72;;;4.68;;
8050;SDS011;4068;42.158;24.732;2023-04-30T13:54:44;6.03;;;4.93;;
8050;SDS011;4068;42.158;24.732;2023-04-30T13:57:09;5.25;;;4.30;;
8050;SDS011;4068;42.158;24.732;2023-04-30T13:59:35;6.43;;;4.25;;
8050;SDS011;4068;42.158;24.732;2023-04-30T14:02:00;5.38;;;4.35;;
8050;SDS011;4068;42.158;24.732;2023-04-30T14:04:26;5.50;;;4.00;;
8050;SDS011;4068;42.158;24.732;2023-04-30T14:06:51;7.78;;;4.70;;
8050;SDS011;4068;42.158;24.732;2023-04-30T14:09:20;5.85;;;4.75;;
8050;SDS011;4068;42.158;24.732;2023-04-30T14:11:46;7.28;;;4.70;;
8050;SDS011;4068;42.158;24.732;2023-04-30T14:14:11;7.85;;;5.05;;
8050;SDS011;4068;42.158;24.732;2023-04-30T14:16:37;7.85;;;4.35;;
8050;SDS011;4068;42.158;24.732;2023-04-30T14:19:03;9.93;;;4.93;;
8050;SDS011;4068;42.158;24.732;2023-04-30T14:21:28;6.53;;;5.18;;
8050;SDS011;4068;42.158;24.732;2023-04-30T14:23:54;6.32;;;4.70;;
8050;SDS011;4068;42.158;24.732;2023-04-30T14:26:20;10.90;;;7.15;;
8050;SDS011;4068;42.158;24.732;2023-04-30T14:28:48;8.25;;;5.70;;
8050;SDS011;4068;42.158;24.732;2023-04-30T14:31:14;9.77;;;5.75;;
8050;SDS011;4068;42.158;24.732;2023-04-30T14:33:39;8.27;;;6.32;;
8050;SDS011;4068;42.158;24.732;2023-04-30T14:36:05;10.98;;;5.65;;
8050;SDS011;4068;42.158;24.732;2023-04-30T14:38:31;13.98;;;5.88;;
8050;SDS011;4068;42.158;24.732;2023-04-30T14:40:57;12.00;;;5.50;;
8050;SDS011;4068;42.158;24.732;2023-04-30T14:43:22;6.88;;;5.10;;
8050;SDS011;4068;42.158;24.732;2023-04-30T14:45:48;12.13;;;5.20;;
8050;SDS011;4068;42.158;24.732;2023-04-30T14:48:14;6.45;;;4.85;;
8050;SDS011;4068;42.158;24.732;2023-04-30T14:50:39;12.40;;;5.70;;
8050;SDS011;4068;42.158;24.732;2023-04-30T14:53:05;13.60;;;5.35;;
8050;SDS011;4068;42.158;24.732;2023-04-30T14:55:31;9.15;;;4.85;;
8050;SDS011;4068;42.158;24.732;2023-04-30T14:57:57;10.88;;;5.13;;
8050;SDS011;4068;42.158;24.732;2023-04-30T15:00:23;10.25;;;5.10;;
8050;SDS011;4068;42.158;24.732;2023-04-30T15:02:48;7.60;;;5.03;;
8050;SDS011;4068;42.158;24.732;2023-04-30T15:05:14;5.90;;;3.88;;
8050;SDS011;4068;42.158;24.732;2023-04-30T15:07:39;4.07;;;3.42;;
8050;SDS011;4068;42.158;24.732;2023-04-30T15:10:05;10.65;;;4.40;;
8050;SDS011;4068;42.158;24.732;2023-04-30T15:12:31;6.75;;;4.32;;
8050;SDS011;4068;42.158;24.732;2023-04-30T15:14:58;9.68;;;3.78;;
8050;SDS011;4068;42.158;24.732;2023-04-30T15:17:24;4.50;;;3.22;;
8050;SDS011;4068;42.158;24.732;2023-04-30T15:19:50;4.38;;;3.42;;